TimeMDT,TemperatureF,Dew PointF,Humidity,Sea Level PressureIn,VisibilityMPH,Wind Direction,Wind SpeedMPH,Gust SpeedMPH,PrecipitationIn,Events,Conditions,WindDirDegrees,DateUTC
12:00 AM,28.8,22.6,78,30.29,-9999.0,WSW,9.2,-,N/A,,Unknown,250,2012-10-11 06:00:00
1:00 AM,30.4,23.7,76,30.30,-9999.0,West,12.7,20.7,N/A,,Unknown,270,2012-10-11 07:00:00
2:00 AM,26.2,22.5,86,30.29,-9999.0,WSW,10.4,-,N/A,,Unknown,250,2012-10-11 08:00:00
3:00 AM,16.3,13.8,90,30.26,-9999.0,WSW,11.5,-,N/A,,Unknown,240,2012-10-11 09:00:00
4:00 AM,27.9,25.0,89,30.24,-9999.0,WSW,12.7,-,N/A,,Unknown,250,2012-10-11 10:00:00
5:00 AM,30.6,23.0,74,30.22,-9999.0,West,13.8,21.9,N/A,,Unknown,280,2012-10-11 11:00:00
6:00 AM,31,25,72,30.21,,West,12.7,,,,,270,2012-10-11 12:00:00
6:00 AM,30.9,25.3,80,30.21,-9999.0,West,12.7,-,N/A,,Unknown,270,2012-10-11 12:00:00
7:00 AM,30.2,24.6,80,30.19,-9999.0,West,12.7,-,N/A,,Unknown,280,2012-10-11 13:00:00
8:00 AM,29.8,24.8,81,30.18,-9999.0,West,12.7,20.7,N/A,,Unknown,280,2012-10-11 14:00:00
9:00 AM,29.1,23.7,80,30.16,-9999.0,WNW,13.8,23.0,N/A,,Unknown,290,2012-10-11 15:00:00
11:00 AM,30.4,26.8,86,30.14,-9999.0,West,10.4,-,N/A,,Unknown,280,2012-10-11 17:00:00
12:00 PM,30,24,70,30.13,,NNW,9.2,,,,,340,2012-10-11 18:00:00
12:00 PM,30.4,24.1,77,30.13,-9999.0,NNW,9.2,-,N/A,,Unknown,340,2012-10-11 18:00:00
2:00 PM,18.5,7.9,63,30.12,-9999.0,North,9.2,-,N/A,,Unknown,360,2012-10-11 20:00:00
3:00 PM,30.2,21.9,71,30.09,-9999.0,NNW,4.6,-,N/A,,Unknown,330,2012-10-11 21:00:00
4:00 PM,27.9,20.5,74,30.07,-9999.0,WNW,3.5,-,N/A,,Unknown,290,2012-10-11 22:00:00
5:00 PM,28.2,26.4,93,30.06,-9999.0,SW,5.8,-,N/A,,Unknown,230,2012-10-11 23:00:00
6:00 PM,13,10,80,30.06,,SW,8.1,,,,,230,2012-10-12 00:00:00
6:00 PM,12.9,9.7,87,30.06,-9999.0,SW,8.1,-,N/A,,Unknown,230,2012-10-12 00:00:00
7:00 PM,53.1,50.4,91,30.01,-9999.0,WSW,6.9,-,N/A,,Unknown,240,2012-10-12 01:00:00
8:00 PM,24.4,20.5,85,30.03,-9999.0,SW,4.6,-,N/A,,Unknown,220,2012-10-12 02:00:00
9:00 PM,24.3,21.6,89,30.01,-9999.0,SSE,1.2,-,N/A,,Unknown,160,2012-10-12 03:00:00
10:00 PM,24.3,22.5,93,30.00,-9999.0,South,3.5,-,N/A,,Unknown,180,2012-10-12 04:00:00
11:00 PM,-9999,-9999,N/A,30.01,-9999.0,SW,3.5,-,N/A,,Unknown,230,2012-10-12 05:00:00